Meteo Giornale » Osservazioni meteo Italia » Capo Bellavista

ore: 23:55 - Osservazioni Meteo Capo Bellavista
Lat. 39° 56' N Lon. 9° 43' E Alt. 138 metri s.l.m.

nuvoloso Europe/Rome

16 °C

Nuvoloso

Temp. 24 Ore

15 °C

19 °C

Sud-Ovest

18.5 Km/h

Dew point 11 °C

Umidità 72 %

Visibilità  10 Km

Il sole sorge alle ore 06:30

Il sole tramonta alle ore 20:08

Data e Ora Cielo e Fenomeni T °C DP °C Um. % Pres. hPa Vis. km Vento km/h
Ieri h: 23:55 nuvoloso Nuvoloso 16 11 72 1008 10 SO 18.5
Ieri h: 22:55 nuvoloso Nuvoloso 16 12 77 1008 10 O/SO 20.3
Ieri h: 20:55 molto_nuvoloso Molto Nuvoloso 17 12 72 1006 10 SO 27.8
Ieri h: 19:55 molto_nuvoloso Molto Nuvoloso 18 12 67 1005 10 SO 27.8
Ieri h: 18:55 molto_nuvoloso Molto Nuvoloso 18 12 67 1004 10 SO 27.8
Ieri h: 17:55 molto_nuvoloso Molto Nuvoloso 18 12 67 1004 10 SO 25.9
Ieri h: 16:55 molto_nuvoloso Molto Nuvoloso 18 10 59 1003 10 O/NO 22.2
Ieri h: 14:55 molto_nuvoloso Molto Nuvoloso 19 10 55 1002 10 O/SO 37
Ieri h: 13:55 molto_nuvoloso Molto Nuvoloso 18 13 72 1003 10 S/SO 24
Ieri h: 12:55 nuvoloso Nuvoloso 15 14 93 1002 10 S/SO 40.7
Ieri h: 11:55 nuvoloso Nuvoloso 16 14 87 1002 10 S/SO 55.5
Ieri h: 10:55 nuvoloso Nuvoloso 16 13 82 1000 10 S 31.5
Ieri h: 09:55 nuvoloso Nuvoloso 16 13 82 999 10 S/SO 33.3
Ieri h: 08:55 nuvoloso Nuvoloso 15 13 87 1001 10 SO 25.9
Ieri h: 07:55 nuvoloso Nuvoloso 15 13 87 1000 10 S/SO 31.5
Ieri h: 06:55 nuvoloso Nuvoloso 15 12 82 1000 10 SO 29.6
Ieri h: 05:55 nuvoloso Nuvoloso 15 11 76 1000 10 SO 33.3
Ieri h: 04:55 nuvoloso Nuvoloso 16 7 55 999 10 O 14.8
Ieri h: 03:55 nuvoloso Nuvoloso 15 7 58 999 10 O 18.5
Ieri h: 02:55 nuvoloso Nuvoloso 15 14 93 999 10 SO 22.2
Ieri h: 01:55 nuvoloso Nuvoloso 15 14 93 999 10 SO 22.2
Ieri h: 00:55 molto_nuvoloso Molto Nuvoloso 15 14 93 1000 10 S 13